sensor_id;sensor_type;location;lat;lon;timestamp;P1;durP1;ratioP1;P2;durP2;ratioP2
68176;SDS011;56478;50.982;7.032;2023-03-14T00:03:35;2.90;;;1.60;;
68176;SDS011;56478;50.982;7.032;2023-03-14T00:06:03;2.75;;;1.52;;
68176;SDS011;56478;50.982;7.032;2023-03-14T00:08:30;2.55;;;1.33;;
68176;SDS011;56478;50.982;7.032;2023-03-14T00:10:56;5.60;;;1.70;;
68176;SDS011;56478;50.982;7.032;2023-03-14T00:13:23;2.97;;;1.52;;
68176;SDS011;56478;50.982;7.032;2023-03-14T00:15:49;4.22;;;1.63;;
68176;SDS011;56478;50.982;7.032;2023-03-14T00:18:15;2.88;;;1.80;;
68176;SDS011;56478;50.982;7.032;2023-03-14T00:20:40;3.20;;;1.70;;
68176;SDS011;56478;50.982;7.032;2023-03-14T00:23:06;4.03;;;1.52;;
68176;SDS011;56478;50.982;7.032;2023-03-14T00:25:32;3.47;;;1.58;;
68176;SDS011;56478;50.982;7.032;2023-03-14T00:27:57;1.98;;;1.33;;
68176;SDS011;56478;50.982;7.032;2023-03-14T00:30:23;1.70;;;1.20;;
68176;SDS011;56478;50.982;7.032;2023-03-14T00:32:48;2.70;;;1.38;;
68176;SDS011;56478;50.982;7.032;2023-03-14T00:35:14;3.72;;;1.35;;
68176;SDS011;56478;50.982;7.032;2023-03-14T00:37:40;4.78;;;1.67;;
68176;SDS011;56478;50.982;7.032;2023-03-14T00:40:06;3.88;;;1.63;;
68176;SDS011;56478;50.982;7.032;2023-03-14T00:42:33;7.50;;;1.60;;
68176;SDS011;56478;50.982;7.032;2023-03-14T00:44:58;1.83;;;1.38;;
68176;SDS011;56478;50.982;7.032;2023-03-14T00:47:24;4.90;;;1.83;;
68176;SDS011;56478;50.982;7.032;2023-03-14T00:49:49;5.35;;;1.60;;
68176;SDS011;56478;50.982;7.032;2023-03-14T00:52:15;2.92;;;1.50;;
68176;SDS011;56478;50.982;7.032;2023-03-14T00:54:40;3.60;;;1.80;;
68176;SDS011;56478;50.982;7.032;2023-03-14T00:57:06;3.28;;;1.40;;
68176;SDS011;56478;50.982;7.032;2023-03-14T00:59:32;6.20;;;1.70;;
68176;SDS011;56478;50.982;7.032;2023-03-14T01:01:57;2.88;;;1.50;;
68176;SDS011;56478;50.982;7.032;2023-03-14T01:04:23;3.47;;;1.50;;
68176;SDS011;56478;50.982;7.032;2023-03-14T01:06:48;5.75;;;1.70;;
68176;SDS011;56478;50.982;7.032;2023-03-14T01:09:14;6.80;;;1.63;;
68176;SDS011;56478;50.982;7.032;2023-03-14T01:11:42;3.05;;;1.42;;
68176;SDS011;56478;50.982;7.032;2023-03-14T01:14:11;3.92;;;1.60;;
68176;SDS011;56478;50.982;7.032;2023-03-14T01:16:37;2.63;;;1.50;;
68176;SDS011;56478;50.982;7.032;2023-03-14T01:19:03;3.95;;;1.60;;
68176;SDS011;56478;50.982;7.032;2023-03-14T01:21:31;3.25;;;1.75;;
68176;SDS011;56478;50.982;7.032;2023-03-14T01:23:58;3.38;;;1.50;;
68176;SDS011;56478;50.982;7.032;2023-03-14T01:26:25;5.97;;;1.50;;
68176;SDS011;56478;50.982;7.032;2023-03-14T01:28:53;5.32;;;1.90;;
68176;SDS011;56478;50.982;7.032;2023-03-14T01:31:19;5.75;;;1.80;;
68176;SDS011;56478;50.982;7.032;2023-03-14T01:33:45;3.58;;;1.40;;
68176;SDS011;56478;50.982;7.032;2023-03-14T01:36:11;3.28;;;1.73;;
68176;SDS011;56478;50.982;7.032;2023-03-14T01:38:37;7.65;;;1.70;;
68176;SDS011;56478;50.982;7.032;2023-03-14T01:41:05;6.40;;;1.58;;
68176;SDS011;56478;50.982;7.032;2023-03-14T01:43:31;4.90;;;1.65;;
68176;SDS011;56478;50.982;7.032;2023-03-14T01:48:33;4.90;;;1.55;;
68176;SDS011;56478;50.982;7.032;2023-03-14T01:51:02;3.90;;;1.55;;
68176;SDS011;56478;50.982;7.032;2023-03-14T01:53:33;5.35;;;1.40;;
68176;SDS011;56478;50.982;7.032;2023-03-14T01:56:00;3.38;;;1.45;;
68176;SDS011;56478;50.982;7.032;2023-03-14T01:58:28;2.77;;;1.50;;
68176;SDS011;56478;50.982;7.032;2023-03-14T02:00:59;2.05;;;1.20;;
68176;SDS011;56478;50.982;7.032;2023-03-14T02:03:27;2.15;;;1.20;;
68176;SDS011;56478;50.982;7.032;2023-03-14T02:05:56;4.07;;;1.50;;
68176;SDS011;56478;50.982;7.032;2023-03-14T02:08:28;3.20;;;1.10;;
68176;SDS011;56478;50.982;7.032;2023-03-14T02:10:56;3.95;;;1.13;;
68176;SDS011;56478;50.982;7.032;2023-03-14T02:13:21;4.32;;;1.08;;
68176;SDS011;56478;50.982;7.032;2023-03-14T02:15:47;2.70;;;1.23;;
68176;SDS011;56478;50.982;7.032;2023-03-14T02:18:14;4.18;;;1.10;;
68176;SDS011;56478;50.982;7.032;2023-03-14T02:23:13;2.90;;;1.10;;
68176;SDS011;56478;50.982;7.032;2023-03-14T02:25:50;4.72;;;0.98;;
68176;SDS011;56478;50.982;7.032;2023-03-14T02:28:21;2.17;;;1.10;;
68176;SDS011;56478;50.982;7.032;2023-03-14T02:30:47;1.48;;;0.82;;
68176;SDS011;56478;50.982;7.032;2023-03-14T02:33:13;1.63;;;0.85;;
68176;SDS011;56478;50.982;7.032;2023-03-14T02:35:46;2.72;;;1.00;;
68176;SDS011;56478;50.982;7.032;2023-03-14T02:41:03;2.95;;;0.82;;
68176;SDS011;56478;50.982;7.032;2023-03-14T02:43:29;5.57;;;1.13;;
68176;SDS011;56478;50.982;7.032;2023-03-14T02:45:54;2.20;;;1.08;;
68176;SDS011;56478;50.982;7.032;2023-03-14T02:48:42;2.55;;;1.40;;
68176;SDS011;56478;50.982;7.032;2023-03-14T02:51:10;2.40;;;1.17;;
68176;SDS011;56478;50.982;7.032;2023-03-14T02:53:36;2.35;;;1.27;;
68176;SDS011;56478;50.982;7.032;2023-03-14T02:56:03;1.63;;;1.20;;
68176;SDS011;56478;50.982;7.032;2023-03-14T02:58:29;1.60;;;1.20;;
68176;SDS011;56478;50.982;7.032;2023-03-14T03:00:55;2.55;;;1.17;;
68176;SDS011;56478;50.982;7.032;2023-03-14T03:03:21;2.00;;;1.15;;
68176;SDS011;56478;50.982;7.032;2023-03-14T03:05:48;1.67;;;1.05;;
68176;SDS011;56478;50.982;7.032;2023-03-14T03:08:18;2.65;;;1.40;;
68176;SDS011;56478;50.982;7.032;2023-03-14T03:10:44;2.35;;;1.20;;
68176;SDS011;56478;50.982;7.032;2023-03-14T03:13:10;2.15;;;1.00;;
68176;SDS011;56478;50.982;7.032;2023-03-14T03:15:36;2.65;;;1.38;;
68176;SDS011;56478;50.982;7.032;2023-03-14T03:18:01;3.28;;;1.10;;
68176;SDS011;56478;50.982;7.032;2023-03-14T03:20:27;1.73;;;1.05;;
68176;SDS011;56478;50.982;7.032;2023-03-14T03:22:52;2.80;;;1.10;;
68176;SDS011;56478;50.982;7.032;2023-03-14T03:25:18;3.15;;;1.10;;
68176;SDS011;56478;50.982;7.032;2023-03-14T03:27:44;1.83;;;1.00;;
68176;SDS011;56478;50.982;7.032;2023-03-14T03:30:09;2.00;;;1.30;;
68176;SDS011;56478;50.982;7.032;2023-03-14T03:32:35;3.35;;;1.35;;
68176;SDS011;56478;50.982;7.032;2023-03-14T03:35:02;2.95;;;1.20;;
68176;SDS011;56478;50.982;7.032;2023-03-14T03:37:30;2.45;;;1.20;;
68176;SDS011;56478;50.982;7.032;2023-03-14T03:39:56;2.25;;;1.40;;
68176;SDS011;56478;50.982;7.032;2023-03-14T03:42:21;3.85;;;1.58;;
68176;SDS011;56478;50.982;7.032;2023-03-14T03:44:47;3.38;;;1.50;;
68176;SDS011;56478;50.982;7.032;2023-03-14T03:47:13;2.90;;;1.35;;
68176;SDS011;56478;50.982;7.032;2023-03-14T03:49:38;3.35;;;1.38;;
68176;SDS011;56478;50.982;7.032;2023-03-14T03:52:04;5.93;;;1.40;;
68176;SDS011;56478;50.982;7.032;2023-03-14T03:54:30;2.35;;;1.40;;
68176;SDS011;56478;50.982;7.032;2023-03-14T03:56:55;3.90;;;1.50;;
68176;SDS011;56478;50.982;7.032;2023-03-14T03:59:21;3.20;;;1.35;;
68176;SDS011;56478;50.982;7.032;2023-03-14T04:01:46;2.63;;;1.33;;
68176;SDS011;56478;50.982;7.032;2023-03-14T04:04:12;3.70;;;1.40;;
68176;SDS011;56478;50.982;7.032;2023-03-14T04:06:38;3.70;;;1.30;;
68176;SDS011;56478;50.982;7.032;2023-03-14T04:09:04;3.40;;;1.42;;
68176;SDS011;56478;50.982;7.032;2023-03-14T04:11:29;4.57;;;1.42;;
68176;SDS011;56478;50.982;7.032;2023-03-14T04:13:55;3.80;;;1.50;;
68176;SDS011;56478;50.982;7.032;2023-03-14T04:16:21;2.88;;;1.70;;
68176;SDS011;56478;50.982;7.032;2023-03-14T04:18:49;5.15;;;1.70;;
68176;SDS011;56478;50.982;7.032;2023-03-14T04:21:16;3.22;;;1.50;;
68176;SDS011;56478;50.982;7.032;2023-03-14T04:23:41;5.20;;;1.80;;
68176;SDS011;56478;50.982;7.032;2023-03-14T04:26:07;4.82;;;1.77;;
68176;SDS011;56478;50.982;7.032;2023-03-14T04:28:33;5.05;;;1.80;;
68176;SDS011;56478;50.982;7.032;2023-03-14T04:31:06;3.05;;;1.58;;
68176;SDS011;56478;50.982;7.032;2023-03-14T04:33:35;6.18;;;1.90;;
68176;SDS011;56478;50.982;7.032;2023-03-14T04:36:02;5.35;;;1.80;;
68176;SDS011;56478;50.982;7.032;2023-03-14T04:38:29;5.80;;;1.70;;
68176;SDS011;56478;50.982;7.032;2023-03-14T04:40:54;6.90;;;1.63;;
68176;SDS011;56478;50.982;7.032;2023-03-14T04:43:20;3.20;;;1.33;;
68176;SDS011;56478;50.982;7.032;2023-03-14T04:45:45;3.55;;;1.48;;
68176;SDS011;56478;50.982;7.032;2023-03-14T04:48:11;4.70;;;1.75;;
68176;SDS011;56478;50.982;7.032;2023-03-14T04:50:38;2.97;;;1.20;;
68176;SDS011;56478;50.982;7.032;2023-03-14T04:53:03;5.35;;;1.60;;
68176;SDS011;56478;50.982;7.032;2023-03-14T04:55:30;4.55;;;1.45;;
68176;SDS011;56478;50.982;7.032;2023-03-14T04:57:57;3.38;;;1.50;;
68176;SDS011;56478;50.982;7.032;2023-03-14T05:00:24;2.60;;;1.20;;
68176;SDS011;56478;50.982;7.032;2023-03-14T05:02:49;4.63;;;1.58;;
68176;SDS011;56478;50.982;7.032;2023-03-14T05:05:15;2.88;;;1.50;;
68176;SDS011;56478;50.982;7.032;2023-03-14T05:07:41;7.47;;;1.65;;
68176;SDS011;56478;50.982;7.032;2023-03-14T05:10:06;3.08;;;1.40;;
68176;SDS011;56478;50.982;7.032;2023-03-14T05:12:32;2.90;;;1.33;;
68176;SDS011;56478;50.982;7.032;2023-03-14T05:14:58;1.88;;;1.30;;
68176;SDS011;56478;50.982;7.032;2023-03-14T05:17:24;2.75;;;1.05;;
68176;SDS011;56478;50.982;7.032;2023-03-14T05:19:49;4.38;;;1.08;;
68176;SDS011;56478;50.982;7.032;2023-03-14T05:22:15;2.78;;;1.45;;
68176;SDS011;56478;50.982;7.032;2023-03-14T05:24:40;2.22;;;1.27;;
68176;SDS011;56478;50.982;7.032;2023-03-14T05:27:06;1.90;;;1.23;;
68176;SDS011;56478;50.982;7.032;2023-03-14T05:29:31;2.72;;;1.30;;
68176;SDS011;56478;50.982;7.032;2023-03-14T05:31:57;3.88;;;1.42;;
68176;SDS011;56478;50.982;7.032;2023-03-14T05:34:22;2.53;;;1.17;;
68176;SDS011;56478;50.982;7.032;2023-03-14T05:36:48;1.45;;;1.00;;
68176;SDS011;56478;50.982;7.032;2023-03-14T05:39:14;1.98;;;1.08;;
68176;SDS011;56478;50.982;7.032;2023-03-14T05:41:39;1.17;;;1.00;;
68176;SDS011;56478;50.982;7.032;2023-03-14T05:44:05;1.77;;;1.40;;
68176;SDS011;56478;50.982;7.032;2023-03-14T05:46:30;1.75;;;0.77;;
68176;SDS011;56478;50.982;7.032;2023-03-14T05:48:57;2.22;;;1.02;;
68176;SDS011;56478;50.982;7.032;2023-03-14T05:51:23;2.05;;;0.90;;
68176;SDS011;56478;50.982;7.032;2023-03-14T05:53:49;1.90;;;0.90;;
68176;SDS011;56478;50.982;7.032;2023-03-14T05:56:14;2.15;;;0.80;;
68176;SDS011;56478;50.982;7.032;2023-03-14T05:58:40;2.88;;;0.80;;
68176;SDS011;56478;50.982;7.032;2023-03-14T06:01:06;1.17;;;0.80;;
68176;SDS011;56478;50.982;7.032;2023-03-14T06:03:33;1.00;;;0.80;;
68176;SDS011;56478;50.982;7.032;2023-03-14T06:05:59;2.42;;;0.77;;
68176;SDS011;56478;50.982;7.032;2023-03-14T06:08:25;1.58;;;0.75;;
68176;SDS011;56478;50.982;7.032;2023-03-14T06:10:51;0.77;;;0.70;;
68176;SDS011;56478;50.982;7.032;2023-03-14T06:13:17;0.70;;;0.70;;
68176;SDS011;56478;50.982;7.032;2023-03-14T06:15:43;0.95;;;0.63;;
68176;SDS011;56478;50.982;7.032;2023-03-14T06:18:09;2.13;;;0.75;;
68176;SDS011;56478;50.982;7.032;2023-03-14T06:20:38;0.70;;;0.70;;
68176;SDS011;56478;50.982;7.032;2023-03-14T06:23:04;0.75;;;0.75;;
68176;SDS011;56478;50.982;7.032;2023-03-14T06:25:31;0.65;;;0.63;;
68176;SDS011;56478;50.982;7.032;2023-03-14T06:27:57;0.90;;;0.90;;
68176;SDS011;56478;50.982;7.032;2023-03-14T06:30:23;0.90;;;0.90;;
68176;SDS011;56478;50.982;7.032;2023-03-14T06:32:49;0.80;;;0.80;;
68176;SDS011;56478;50.982;7.032;2023-03-14T06:35:14;0.98;;;0.77;;
68176;SDS011;56478;50.982;7.032;2023-03-14T06:37:40;1.42;;;0.50;;
68176;SDS011;56478;50.982;7.032;2023-03-14T06:40:06;1.40;;;0.90;;
68176;SDS011;56478;50.982;7.032;2023-03-14T06:42:33;0.60;;;0.60;;
68176;SDS011;56478;50.982;7.032;2023-03-14T06:44:58;2.63;;;0.80;;
68176;SDS011;56478;50.982;7.032;2023-03-14T06:47:24;3.17;;;0.90;;
68176;SDS011;56478;50.982;7.032;2023-03-14T06:49:49;1.42;;;0.80;;
68176;SDS011;56478;50.982;7.032;2023-03-14T06:52:15;1.80;;;0.50;;
68176;SDS011;56478;50.982;7.032;2023-03-14T06:54:41;0.98;;;0.60;;
68176;SDS011;56478;50.982;7.032;2023-03-14T06:57:06;0.60;;;0.60;;
68176;SDS011;56478;50.982;7.032;2023-03-14T06:59:32;0.70;;;0.70;;
68176;SDS011;56478;50.982;7.032;2023-03-14T07:01:58;0.60;;;0.60;;
68176;SDS011;56478;50.982;7.032;2023-03-14T07:04:23;0.90;;;0.70;;
68176;SDS011;56478;50.982;7.032;2023-03-14T07:06:49;0.70;;;0.70;;
68176;SDS011;56478;50.982;7.032;2023-03-14T07:09:15;1.63;;;0.90;;
68176;SDS011;56478;50.982;7.032;2023-03-14T07:11:44;2.05;;;0.80;;
68176;SDS011;56478;50.982;7.032;2023-03-14T07:14:10;0.70;;;0.70;;
68176;SDS011;56478;50.982;7.032;2023-03-14T07:16:35;0.45;;;0.45;;
68176;SDS011;56478;50.982;7.032;2023-03-14T07:19:01;3.05;;;0.80;;
68176;SDS011;56478;50.982;7.032;2023-03-14T07:21:27;0.70;;;0.70;;
68176;SDS011;56478;50.982;7.032;2023-03-14T07:23:53;1.45;;;0.60;;
68176;SDS011;56478;50.982;7.032;2023-03-14T07:26:19;0.68;;;0.55;;
68176;SDS011;56478;50.982;7.032;2023-03-14T07:28:44;1.95;;;0.57;;
68176;SDS011;56478;50.982;7.032;2023-03-14T07:31:10;0.50;;;0.50;;
68176;SDS011;56478;50.982;7.032;2023-03-14T07:33:36;0.68;;;0.40;;
68176;SDS011;56478;50.982;7.032;2023-03-14T07:36:01;0.52;;;0.52;;
68176;SDS011;56478;50.982;7.032;2023-03-14T07:38:28;0.50;;;0.50;;
68176;SDS011;56478;50.982;7.032;2023-03-14T07:41:01;0.57;;;0.57;;
68176;SDS011;56478;50.982;7.032;2023-03-14T07:43:27;1.20;;;0.52;;
68176;SDS011;56478;50.982;7.032;2023-03-14T07:45:53;0.40;;;0.40;;
68176;SDS011;56478;50.982;7.032;2023-03-14T07:48:19;4.45;;;1.48;;
68176;SDS011;56478;50.982;7.032;2023-03-14T07:50:47;1.65;;;0.77;;
68176;SDS011;56478;50.982;7.032;2023-03-14T07:53:14;6.40;;;1.65;;
68176;SDS011;56478;50.982;7.032;2023-03-14T07:55:40;0.65;;;0.65;;
68176;SDS011;56478;50.982;7.032;2023-03-14T07:58:05;0.52;;;0.52;;
68176;SDS011;56478;50.982;7.032;2023-03-14T08:00:31;1.33;;;0.75;;
68176;SDS011;56478;50.982;7.032;2023-03-14T08:02:57;0.82;;;0.80;;
68176;SDS011;56478;50.982;7.032;2023-03-14T08:05:23;0.70;;;0.70;;
68176;SDS011;56478;50.982;7.032;2023-03-14T08:07:48;1.05;;;1.05;;
68176;SDS011;56478;50.982;7.032;2023-03-14T08:10:14;0.77;;;0.68;;
68176;SDS011;56478;50.982;7.032;2023-03-14T08:12:46;0.77;;;0.77;;
68176;SDS011;56478;50.982;7.032;2023-03-14T08:15:11;1.02;;;1.02;;
68176;SDS011;56478;50.982;7.032;2023-03-14T08:17:37;1.23;;;1.13;;
68176;SDS011;56478;50.982;7.032;2023-03-14T08:20:03;0.80;;;0.80;;
68176;SDS011;56478;50.982;7.032;2023-03-14T08:22:32;2.45;;;0.90;;
68176;SDS011;56478;50.982;7.032;2023-03-14T08:24:58;1.10;;;1.00;;
68176;SDS011;56478;50.982;7.032;2023-03-14T08:27:23;1.15;;;0.90;;
68176;SDS011;56478;50.982;7.032;2023-03-14T08:29:49;0.77;;;0.75;;
68176;SDS011;56478;50.982;7.032;2023-03-14T08:32:14;0.70;;;0.70;;
68176;SDS011;56478;50.982;7.032;2023-03-14T08:34:40;0.82;;;0.82;;
68176;SDS011;56478;50.982;7.032;2023-03-14T08:37:05;0.80;;;0.80;;
68176;SDS011;56478;50.982;7.032;2023-03-14T08:39:31;0.88;;;0.88;;
68176;SDS011;56478;50.982;7.032;2023-03-14T08:41:56;0.63;;;0.63;;
68176;SDS011;56478;50.982;7.032;2023-03-14T08:44:22;0.93;;;0.70;;
68176;SDS011;56478;50.982;7.032;2023-03-14T08:46:48;0.80;;;0.80;;
68176;SDS011;56478;50.982;7.032;2023-03-14T08:49:13;0.70;;;0.70;;
68176;SDS011;56478;50.982;7.032;2023-03-14T08:51:39;2.33;;;0.98;;
68176;SDS011;56478;50.982;7.032;2023-03-14T08:54:05;2.35;;;1.20;;
68176;SDS011;56478;50.982;7.032;2023-03-14T08:56:31;2.28;;;1.17;;
68176;SDS011;56478;50.982;7.032;2023-03-14T08:58:56;0.98;;;0.90;;
68176;SDS011;56478;50.982;7.032;2023-03-14T09:01:22;1.20;;;1.10;;
68176;SDS011;56478;50.982;7.032;2023-03-14T09:03:50;1.20;;;0.90;;
68176;SDS011;56478;50.982;7.032;2023-03-14T09:06:16;2.83;;;0.73;;
68176;SDS011;56478;50.982;7.032;2023-03-14T09:08:45;2.38;;;0.65;;
68176;SDS011;56478;50.982;7.032;2023-03-14T09:11:10;1.42;;;0.90;;
68176;SDS011;56478;50.982;7.032;2023-03-14T09:13:37;0.60;;;0.60;;
68176;SDS011;56478;50.982;7.032;2023-03-14T09:16:03;0.60;;;0.60;;
68176;SDS011;56478;50.982;7.032;2023-03-14T09:18:29;1.98;;;1.05;;
68176;SDS011;56478;50.982;7.032;2023-03-14T09:20:55;3.75;;;1.20;;
68176;SDS011;56478;50.982;7.032;2023-03-14T09:23:21;1.48;;;1.02;;
68176;SDS011;56478;50.982;7.032;2023-03-14T09:25:46;0.88;;;0.88;;
68176;SDS011;56478;50.982;7.032;2023-03-14T09:28:12;1.85;;;0.90;;
68176;SDS011;56478;50.982;7.032;2023-03-14T09:30:38;1.27;;;0.95;;
68176;SDS011;56478;50.982;7.032;2023-03-14T09:33:03;1.40;;;0.80;;
68176;SDS011;56478;50.982;7.032;2023-03-14T09:35:29;1.27;;;1.10;;
68176;SDS011;56478;50.982;7.032;2023-03-14T09:37:55;0.95;;;0.95;;
68176;SDS011;56478;50.982;7.032;2023-03-14T09:40:20;1.00;;;0.98;;
68176;SDS011;56478;50.982;7.032;2023-03-14T09:42:48;6.22;;;1.20;;
68176;SDS011;56478;50.982;7.032;2023-03-14T09:45:20;1.02;;;1.02;;
68176;SDS011;56478;50.982;7.032;2023-03-14T09:47:59;1.42;;;0.90;;
68176;SDS011;56478;50.982;7.032;2023-03-14T09:50:27;0.75;;;0.75;;
68176;SDS011;56478;50.982;7.032;2023-03-14T09:53:02;0.80;;;0.80;;
68176;SDS011;56478;50.982;7.032;2023-03-14T09:55:30;0.90;;;0.90;;
68176;SDS011;56478;50.982;7.032;2023-03-14T09:57:58;1.15;;;0.98;;
68176;SDS011;56478;50.982;7.032;2023-03-14T10:00:27;1.30;;;1.30;;
68176;SDS011;56478;50.982;7.032;2023-03-14T10:07:50;1.30;;;1.30;;
68176;SDS011;56478;50.982;7.032;2023-03-14T10:10:20;1.45;;;1.35;;
68176;SDS011;56478;50.982;7.032;2023-03-14T10:12:48;1.50;;;1.40;;
68176;SDS011;56478;50.982;7.032;2023-03-14T10:15:25;3.67;;;1.42;;
68176;SDS011;56478;50.982;7.032;2023-03-14T10:17:54;1.60;;;1.50;;
68176;SDS011;56478;50.982;7.032;2023-03-14T10:20:36;3.28;;;1.40;;
68176;SDS011;56478;50.982;7.032;2023-03-14T10:23:04;2.40;;;1.50;;
68176;SDS011;56478;50.982;7.032;2023-03-14T10:25:33;1.50;;;1.40;;
68176;SDS011;56478;50.982;7.032;2023-03-14T10:28:01;1.33;;;1.33;;
68176;SDS011;56478;50.982;7.032;2023-03-14T10:30:45;1.45;;;1.45;;
68176;SDS011;56478;50.982;7.032;2023-03-14T10:33:15;1.60;;;1.50;;
68176;SDS011;56478;50.982;7.032;2023-03-14T10:35:52;2.08;;;1.70;;
68176;SDS011;56478;50.982;7.032;2023-03-14T10:38:21;1.90;;;1.80;;
68176;SDS011;56478;50.982;7.032;2023-03-14T10:40:50;1.80;;;1.70;;
68176;SDS011;56478;50.982;7.032;2023-03-14T10:43:39;2.42;;;1.92;;
68176;SDS011;56478;50.982;7.032;2023-03-14T10:46:37;2.08;;;1.98;;
68176;SDS011;56478;50.982;7.032;2023-03-14T10:48:57;3.85;;;2.40;;
68176;SDS011;56478;50.982;7.032;2023-03-14T10:51:26;3.30;;;1.90;;
68176;SDS011;56478;50.982;7.032;2023-03-14T10:53:57;2.35;;;1.80;;
68176;SDS011;56478;50.982;7.032;2023-03-14T10:56:26;2.15;;;2.05;;
68176;SDS011;56478;50.982;7.032;2023-03-14T10:58:58;2.10;;;2.00;;
68176;SDS011;56478;50.982;7.032;2023-03-14T11:01:29;2.15;;;2.00;;
68176;SDS011;56478;50.982;7.032;2023-03-14T11:07:03;2.63;;;1.70;;
68176;SDS011;56478;50.982;7.032;2023-03-14T11:15:02;2.65;;;1.60;;
68176;SDS011;56478;50.982;7.032;2023-03-14T11:17:50;2.47;;;1.55;;
68176;SDS011;56478;50.982;7.032;2023-03-14T11:23:18;1.50;;;1.50;;
68176;SDS011;56478;50.982;7.032;2023-03-14T11:28:38;1.88;;;1.60;;
68176;SDS011;56478;50.982;7.032;2023-03-14T11:33:53;2.28;;;1.58;;
68176;SDS011;56478;50.982;7.032;2023-03-14T11:36:31;1.40;;;1.30;;
68176;SDS011;56478;50.982;7.032;2023-03-14T11:39:01;1.48;;;1.38;;
68176;SDS011;56478;50.982;7.032;2023-03-14T11:41:33;1.67;;;1.20;;
68176;SDS011;56478;50.982;7.032;2023-03-14T11:44:05;1.48;;;1.00;;
68176;SDS011;56478;50.982;7.032;2023-03-14T11:46:43;1.10;;;1.10;;
68176;SDS011;56478;50.982;7.032;2023-03-14T11:49:31;1.55;;;1.33;;
68176;SDS011;56478;50.982;7.032;2023-03-14T11:52:01;1.33;;;1.30;;
68176;SDS011;56478;50.982;7.032;2023-03-14T11:57:10;1.60;;;1.50;;
68176;SDS011;56478;50.982;7.032;2023-03-14T11:59:47;2.58;;;1.58;;
68176;SDS011;56478;50.982;7.032;2023-03-14T12:08:52;1.98;;;1.42;;
68176;SDS011;56478;50.982;7.032;2023-03-14T12:14:26;1.23;;;1.20;;
68176;SDS011;56478;50.982;7.032;2023-03-14T12:16:53;2.47;;;1.35;;
68176;SDS011;56478;50.982;7.032;2023-03-14T12:24:20;2.63;;;2.33;;
68176;SDS011;56478;50.982;7.032;2023-03-14T12:26:54;5.60;;;2.58;;
68176;SDS011;56478;50.982;7.032;2023-03-14T12:29:21;2.80;;;2.60;;
68176;SDS011;56478;50.982;7.032;2023-03-14T12:34:45;7.07;;;3.45;;
68176;SDS011;56478;50.982;7.032;2023-03-14T12:37:16;4.05;;;3.33;;
68176;SDS011;56478;50.982;7.032;2023-03-14T12:39:45;5.03;;;3.40;;
68176;SDS011;56478;50.982;7.032;2023-03-14T12:45:21;3.17;;;2.30;;
68176;SDS011;56478;50.982;7.032;2023-03-14T12:47:53;2.97;;;2.78;;
68176;SDS011;56478;50.982;7.032;2023-03-14T12:50:24;3.92;;;3.17;;
68176;SDS011;56478;50.982;7.032;2023-03-14T12:56:02;3.55;;;3.00;;
68176;SDS011;56478;50.982;7.032;2023-03-14T13:01:52;2.00;;;1.90;;
68176;SDS011;56478;50.982;7.032;2023-03-14T13:04:25;2.60;;;1.90;;
68176;SDS011;56478;50.982;7.032;2023-03-14T13:06:54;2.80;;;2.13;;
68176;SDS011;56478;50.982;7.032;2023-03-14T13:11:53;2.43;;;1.93;;
68176;SDS011;56478;50.982;7.032;2023-03-14T13:14:19;4.90;;;2.10;;
68176;SDS011;56478;50.982;7.032;2023-03-14T13:16:46;4.57;;;1.80;;
68176;SDS011;56478;50.982;7.032;2023-03-14T13:19:33;3.47;;;2.45;;
68176;SDS011;56478;50.982;7.032;2023-03-14T13:22:03;2.67;;;1.95;;
68176;SDS011;56478;50.982;7.032;2023-03-14T13:24:40;4.63;;;1.92;;
68176;SDS011;56478;50.982;7.032;2023-03-14T13:27:08;3.20;;;1.95;;
68176;SDS011;56478;50.982;7.032;2023-03-14T13:29:43;4.72;;;1.80;;
68176;SDS011;56478;50.982;7.032;2023-03-14T13:32:22;2.97;;;1.88;;
68176;SDS011;56478;50.982;7.032;2023-03-14T13:34:57;5.38;;;1.60;;
68176;SDS011;56478;50.982;7.032;2023-03-14T13:37:24;4.35;;;1.77;;
68176;SDS011;56478;50.982;7.032;2023-03-14T13:39:51;4.15;;;1.63;;
68176;SDS011;56478;50.982;7.032;2023-03-14T13:42:20;3.92;;;1.73;;
68176;SDS011;56478;50.982;7.032;2023-03-14T13:44:49;1.67;;;1.50;;
68176;SDS011;56478;50.982;7.032;2023-03-14T13:47:18;1.40;;;1.30;;
68176;SDS011;56478;50.982;7.032;2023-03-14T13:49:45;3.22;;;1.60;;
68176;SDS011;56478;50.982;7.032;2023-03-14T13:54:58;3.70;;;1.52;;
68176;SDS011;56478;50.982;7.032;2023-03-14T13:57:25;1.55;;;1.42;;
68176;SDS011;56478;50.982;7.032;2023-03-14T14:02:38;5.60;;;2.22;;
68176;SDS011;56478;50.982;7.032;2023-03-14T14:05:04;2.38;;;1.70;;
68176;SDS011;56478;50.982;7.032;2023-03-14T14:07:30;9.77;;;2.20;;
68176;SDS011;56478;50.982;7.032;2023-03-14T14:09:56;7.85;;;2.33;;
68176;SDS011;56478;50.982;7.032;2023-03-14T14:12:27;4.72;;;2.13;;
68176;SDS011;56478;50.982;7.032;2023-03-14T14:15:07;4.80;;;2.08;;
68176;SDS011;56478;50.982;7.032;2023-03-14T14:17:39;5.75;;;2.38;;
68176;SDS011;56478;50.982;7.032;2023-03-14T14:20:22;7.85;;;2.58;;
68176;SDS011;56478;50.982;7.032;2023-03-14T14:22:59;7.40;;;2.83;;
68176;SDS011;56478;50.982;7.032;2023-03-14T14:25:28;6.50;;;2.53;;
68176;SDS011;56478;50.982;7.032;2023-03-14T14:27:54;6.25;;;2.33;;
68176;SDS011;56478;50.982;7.032;2023-03-14T14:32:49;6.28;;;2.50;;
68176;SDS011;56478;50.982;7.032;2023-03-14T14:35:22;5.63;;;2.03;;
68176;SDS011;56478;50.982;7.032;2023-03-14T14:37:49;5.95;;;2.05;;
68176;SDS011;56478;50.982;7.032;2023-03-14T14:40:19;7.28;;;1.80;;
68176;SDS011;56478;50.982;7.032;2023-03-14T14:42:47;6.78;;;2.25;;
68176;SDS011;56478;50.982;7.032;2023-03-14T14:45:16;7.18;;;2.10;;
68176;SDS011;56478;50.982;7.032;2023-03-14T14:47:54;6.57;;;2.17;;
68176;SDS011;56478;50.982;7.032;2023-03-14T14:52:58;6.35;;;2.58;;
68176;SDS011;56478;50.982;7.032;2023-03-14T14:55:31;7.70;;;2.33;;
68176;SDS011;56478;50.982;7.032;2023-03-14T15:00:53;12.52;;;3.13;;
68176;SDS011;56478;50.982;7.032;2023-03-14T15:03:50;10.38;;;2.65;;
68176;SDS011;56478;50.982;7.032;2023-03-14T15:06:17;10.10;;;2.40;;
68176;SDS011;56478;50.982;7.032;2023-03-14T15:08:43;14.60;;;2.80;;
68176;SDS011;56478;50.982;7.032;2023-03-14T15:11:16;9.65;;;2.85;;
68176;SDS011;56478;50.982;7.032;2023-03-14T15:13:43;9.25;;;2.58;;
68176;SDS011;56478;50.982;7.032;2023-03-14T15:16:12;11.38;;;2.28;;
68176;SDS011;56478;50.982;7.032;2023-03-14T15:18:41;10.38;;;2.40;;
68176;SDS011;56478;50.982;7.032;2023-03-14T15:21:09;10.02;;;2.60;;
68176;SDS011;56478;50.982;7.032;2023-03-14T15:23:35;11.82;;;2.55;;
68176;SDS011;56478;50.982;7.032;2023-03-14T15:26:01;7.95;;;2.60;;
68176;SDS011;56478;50.982;7.032;2023-03-14T15:28:28;14.90;;;2.78;;
68176;SDS011;56478;50.982;7.032;2023-03-14T15:30:57;12.45;;;2.63;;
68176;SDS011;56478;50.982;7.032;2023-03-14T15:35:50;12.52;;;2.80;;
68176;SDS011;56478;50.982;7.032;2023-03-14T15:38:17;11.52;;;2.67;;
68176;SDS011;56478;50.982;7.032;2023-03-14T15:40:47;10.52;;;2.38;;
68176;SDS011;56478;50.982;7.032;2023-03-14T15:43:14;7.50;;;2.30;;
68176;SDS011;56478;50.982;7.032;2023-03-14T15:45:39;12.02;;;2.20;;
68176;SDS011;56478;50.982;7.032;2023-03-14T15:48:06;8.80;;;2.60;;
68176;SDS011;56478;50.982;7.032;2023-03-14T15:50:37;14.02;;;2.60;;
68176;SDS011;56478;50.982;7.032;2023-03-14T15:53:03;10.45;;;2.20;;
68176;SDS011;56478;50.982;7.032;2023-03-14T15:55:28;14.57;;;2.70;;
68176;SDS011;56478;50.982;7.032;2023-03-14T15:57:54;12.43;;;2.00;;
68176;SDS011;56478;50.982;7.032;2023-03-14T16:00:20;10.93;;;2.17;;
68176;SDS011;56478;50.982;7.032;2023-03-14T16:02:49;8.20;;;2.20;;
68176;SDS011;56478;50.982;7.032;2023-03-14T16:05:15;8.05;;;1.90;;
68176;SDS011;56478;50.982;7.032;2023-03-14T16:07:44;8.63;;;1.88;;
68176;SDS011;56478;50.982;7.032;2023-03-14T16:10:10;9.23;;;1.80;;
68176;SDS011;56478;50.982;7.032;2023-03-14T16:12:37;4.20;;;1.50;;